sensor_id;sensor_type;location;lat;lon;timestamp;P1;durP1;ratioP1;P2;durP2;ratioP2
39078;SDS011;24829;49.208;12.080;2023-07-20T00:00:45;8.32;;;3.33;;
39078;SDS011;24829;49.208;12.080;2023-07-20T00:03:14;6.05;;;3.03;;
39078;SDS011;24829;49.208;12.080;2023-07-20T00:05:44;7.88;;;3.92;;
39078;SDS011;24829;49.208;12.080;2023-07-20T00:08:12;7.95;;;3.28;;
39078;SDS011;24829;49.208;12.080;2023-07-20T00:10:39;7.47;;;3.08;;
39078;SDS011;24829;49.208;12.080;2023-07-20T00:13:05;5.00;;;3.03;;
39078;SDS011;24829;49.208;12.080;2023-07-20T00:15:31;7.05;;;3.45;;
39078;SDS011;24829;49.208;12.080;2023-07-20T00:17:56;6.45;;;3.20;;
39078;SDS011;24829;49.208;12.080;2023-07-20T00:20:23;7.45;;;3.05;;
39078;SDS011;24829;49.208;12.080;2023-07-20T00:22:49;8.07;;;3.28;;
39078;SDS011;24829;49.208;12.080;2023-07-20T00:25:17;5.22;;;3.00;;
39078;SDS011;24829;49.208;12.080;2023-07-20T00:27:43;5.43;;;3.08;;
39078;SDS011;24829;49.208;12.080;2023-07-20T00:30:09;7.03;;;3.30;;
39078;SDS011;24829;49.208;12.080;2023-07-20T00:32:35;7.18;;;3.13;;
39078;SDS011;24829;49.208;12.080;2023-07-20T00:35:00;8.60;;;3.08;;
39078;SDS011;24829;49.208;12.080;2023-07-20T00:37:26;6.80;;;3.25;;
39078;SDS011;24829;49.208;12.080;2023-07-20T00:39:52;5.78;;;3.25;;
39078;SDS011;24829;49.208;12.080;2023-07-20T00:42:18;7.90;;;2.80;;
39078;SDS011;24829;49.208;12.080;2023-07-20T00:44:44;4.80;;;3.13;;
39078;SDS011;24829;49.208;12.080;2023-07-20T00:47:09;7.60;;;3.78;;
39078;SDS011;24829;49.208;12.080;2023-07-20T00:49:35;4.78;;;3.10;;
39078;SDS011;24829;49.208;12.080;2023-07-20T00:52:02;6.03;;;3.17;;
39078;SDS011;24829;49.208;12.080;2023-07-20T00:54:30;5.80;;;3.78;;
39078;SDS011;24829;49.208;12.080;2023-07-20T00:56:56;4.85;;;3.53;;
39078;SDS011;24829;49.208;12.080;2023-07-20T00:59:23;7.82;;;3.58;;
39078;SDS011;24829;49.208;12.080;2023-07-20T01:01:48;10.02;;;3.65;;
39078;SDS011;24829;49.208;12.080;2023-07-20T01:04:14;8.90;;;4.20;;
39078;SDS011;24829;49.208;12.080;2023-07-20T01:06:48;6.43;;;3.33;;
39078;SDS011;24829;49.208;12.080;2023-07-20T01:09:26;8.07;;;3.92;;
39078;SDS011;24829;49.208;12.080;2023-07-20T01:12:07;8.52;;;3.45;;
39078;SDS011;24829;49.208;12.080;2023-07-20T01:14:54;5.72;;;2.88;;
39078;SDS011;24829;49.208;12.080;2023-07-20T01:17:20;6.43;;;3.58;;
39078;SDS011;24829;49.208;12.080;2023-07-20T01:19:45;7.20;;;3.65;;
39078;SDS011;24829;49.208;12.080;2023-07-20T01:28:18;8.30;;;3.75;;
39078;SDS011;24829;49.208;12.080;2023-07-20T01:33:50;7.28;;;4.03;;
39078;SDS011;24829;49.208;12.080;2023-07-20T01:36:18;9.27;;;3.85;;
39078;SDS011;24829;49.208;12.080;2023-07-20T01:38:46;10.45;;;4.30;;
39078;SDS011;24829;49.208;12.080;2023-07-20T01:41:12;8.45;;;4.20;;
39078;SDS011;24829;49.208;12.080;2023-07-20T01:43:39;5.25;;;3.95;;
39078;SDS011;24829;49.208;12.080;2023-07-20T01:46:05;7.55;;;3.55;;
39078;SDS011;24829;49.208;12.080;2023-07-20T01:48:31;12.98;;;4.47;;
39078;SDS011;24829;49.208;12.080;2023-07-20T01:50:57;7.93;;;4.13;;
39078;SDS011;24829;49.208;12.080;2023-07-20T01:53:22;6.15;;;4.32;;
39078;SDS011;24829;49.208;12.080;2023-07-20T01:55:48;7.30;;;4.47;;
39078;SDS011;24829;49.208;12.080;2023-07-20T01:58:14;7.75;;;3.88;;
39078;SDS011;24829;49.208;12.080;2023-07-20T02:00:39;10.82;;;5.60;;
39078;SDS011;24829;49.208;12.080;2023-07-20T02:03:05;6.85;;;4.13;;
39078;SDS011;24829;49.208;12.080;2023-07-20T02:05:31;8.18;;;3.75;;
39078;SDS011;24829;49.208;12.080;2023-07-20T02:07:57;6.65;;;4.43;;
39078;SDS011;24829;49.208;12.080;2023-07-20T02:10:22;6.25;;;3.30;;
39078;SDS011;24829;49.208;12.080;2023-07-20T02:12:48;7.40;;;4.00;;
39078;SDS011;24829;49.208;12.080;2023-07-20T02:15:14;7.30;;;3.67;;
39078;SDS011;24829;49.208;12.080;2023-07-20T02:17:41;4.97;;;4.00;;
39078;SDS011;24829;49.208;12.080;2023-07-20T02:20:08;8.85;;;4.18;;
39078;SDS011;24829;49.208;12.080;2023-07-20T02:22:35;8.95;;;4.00;;
39078;SDS011;24829;49.208;12.080;2023-07-20T02:25:02;9.13;;;4.63;;
39078;SDS011;24829;49.208;12.080;2023-07-20T02:27:32;9.57;;;4.57;;
39078;SDS011;24829;49.208;12.080;2023-07-20T02:29:58;9.93;;;4.68;;
39078;SDS011;24829;49.208;12.080;2023-07-20T02:32:23;8.05;;;4.75;;
39078;SDS011;24829;49.208;12.080;2023-07-20T02:34:49;7.63;;;4.07;;
39078;SDS011;24829;49.208;12.080;2023-07-20T02:37:15;10.52;;;4.53;;
39078;SDS011;24829;49.208;12.080;2023-07-20T02:39:41;7.93;;;4.10;;
39078;SDS011;24829;49.208;12.080;2023-07-20T02:42:07;10.77;;;4.57;;
39078;SDS011;24829;49.208;12.080;2023-07-20T02:44:32;8.02;;;4.80;;
39078;SDS011;24829;49.208;12.080;2023-07-20T02:46:58;6.20;;;4.50;;
39078;SDS011;24829;49.208;12.080;2023-07-20T02:49:23;7.57;;;4.53;;
39078;SDS011;24829;49.208;12.080;2023-07-20T02:51:49;15.57;;;5.32;;
39078;SDS011;24829;49.208;12.080;2023-07-20T02:54:15;9.27;;;4.90;;
39078;SDS011;24829;49.208;12.080;2023-07-20T02:56:40;8.55;;;4.55;;
39078;SDS011;24829;49.208;12.080;2023-07-20T02:59:06;8.23;;;4.43;;
39078;SDS011;24829;49.208;12.080;2023-07-20T03:01:31;9.77;;;5.10;;
39078;SDS011;24829;49.208;12.080;2023-07-20T03:03:57;6.85;;;4.20;;
39078;SDS011;24829;49.208;12.080;2023-07-20T03:06:23;12.00;;;4.65;;
39078;SDS011;24829;49.208;12.080;2023-07-20T03:08:48;8.02;;;4.72;;
39078;SDS011;24829;49.208;12.080;2023-07-20T03:11:17;17.17;;;4.72;;
39078;SDS011;24829;49.208;12.080;2023-07-20T03:13:44;13.43;;;5.40;;
39078;SDS011;24829;49.208;12.080;2023-07-20T03:16:10;8.18;;;4.80;;
39078;SDS011;24829;49.208;12.080;2023-07-20T03:18:40;7.53;;;5.05;;
39078;SDS011;24829;49.208;12.080;2023-07-20T03:21:06;10.70;;;4.82;;
39078;SDS011;24829;49.208;12.080;2023-07-20T03:23:33;7.90;;;4.38;;
39078;SDS011;24829;49.208;12.080;2023-07-20T03:25:58;9.23;;;5.13;;
39078;SDS011;24829;49.208;12.080;2023-07-20T03:28:25;9.65;;;4.68;;
39078;SDS011;24829;49.208;12.080;2023-07-20T03:30:54;7.47;;;3.90;;
39078;SDS011;24829;49.208;12.080;2023-07-20T03:33:21;5.25;;;3.92;;
39078;SDS011;24829;49.208;12.080;2023-07-20T03:35:51;8.57;;;5.07;;
39078;SDS011;24829;49.208;12.080;2023-07-20T03:38:16;12.85;;;5.00;;
39078;SDS011;24829;49.208;12.080;2023-07-20T03:41:16;6.03;;;4.93;;
39078;SDS011;24829;49.208;12.080;2023-07-20T03:43:36;12.73;;;5.13;;
39078;SDS011;24829;49.208;12.080;2023-07-20T03:46:02;6.22;;;4.28;;
39078;SDS011;24829;49.208;12.080;2023-07-20T03:48:31;13.35;;;4.93;;
39078;SDS011;24829;49.208;12.080;2023-07-20T03:50:57;8.40;;;4.90;;
39078;SDS011;24829;49.208;12.080;2023-07-20T03:53:23;6.90;;;4.45;;
39078;SDS011;24829;49.208;12.080;2023-07-20T03:55:49;7.38;;;4.68;;
39078;SDS011;24829;49.208;12.080;2023-07-20T03:58:16;9.13;;;4.57;;
39078;SDS011;24829;49.208;12.080;2023-07-20T04:00:46;9.68;;;4.25;;
39078;SDS011;24829;49.208;12.080;2023-07-20T04:03:13;7.55;;;4.60;;
39078;SDS011;24829;49.208;12.080;2023-07-20T04:05:39;8.55;;;4.65;;
39078;SDS011;24829;49.208;12.080;2023-07-20T04:08:05;7.97;;;4.93;;
39078;SDS011;24829;49.208;12.080;2023-07-20T04:10:31;10.10;;;4.70;;
39078;SDS011;24829;49.208;12.080;2023-07-20T04:12:56;11.73;;;5.15;;
39078;SDS011;24829;49.208;12.080;2023-07-20T04:15:22;12.75;;;4.70;;
39078;SDS011;24829;49.208;12.080;2023-07-20T04:17:48;10.10;;;5.40;;
39078;SDS011;24829;49.208;12.080;2023-07-20T04:20:14;8.57;;;4.65;;
39078;SDS011;24829;49.208;12.080;2023-07-20T04:22:39;12.05;;;4.90;;
39078;SDS011;24829;49.208;12.080;2023-07-20T04:25:05;12.60;;;4.82;;
39078;SDS011;24829;49.208;12.080;2023-07-20T04:27:31;7.40;;;3.90;;
39078;SDS011;24829;49.208;12.080;2023-07-20T04:30:00;9.25;;;3.90;;
39078;SDS011;24829;49.208;12.080;2023-07-20T04:32:25;8.77;;;4.38;;
39078;SDS011;24829;49.208;12.080;2023-07-20T04:34:51;8.20;;;4.50;;
39078;SDS011;24829;49.208;12.080;2023-07-20T04:37:17;8.13;;;4.55;;
39078;SDS011;24829;49.208;12.080;2023-07-20T04:39:42;6.30;;;4.13;;
39078;SDS011;24829;49.208;12.080;2023-07-20T04:42:08;9.82;;;4.55;;
39078;SDS011;24829;49.208;12.080;2023-07-20T04:44:33;8.20;;;4.53;;
39078;SDS011;24829;49.208;12.080;2023-07-20T04:46:59;9.55;;;4.55;;
39078;SDS011;24829;49.208;12.080;2023-07-20T04:49:24;8.00;;;4.25;;
39078;SDS011;24829;49.208;12.080;2023-07-20T04:51:50;12.00;;;4.38;;
39078;SDS011;24829;49.208;12.080;2023-07-20T04:54:16;7.82;;;4.07;;
39078;SDS011;24829;49.208;12.080;2023-07-20T04:56:43;8.85;;;4.22;;
39078;SDS011;24829;49.208;12.080;2023-07-20T04:59:09;12.82;;;4.55;;
39078;SDS011;24829;49.208;12.080;2023-07-20T05:01:34;9.25;;;4.28;;
39078;SDS011;24829;49.208;12.080;2023-07-20T05:04:00;6.93;;;3.80;;
39078;SDS011;24829;49.208;12.080;2023-07-20T05:06:25;6.85;;;3.88;;
39078;SDS011;24829;49.208;12.080;2023-07-20T05:08:51;5.78;;;3.50;;
39078;SDS011;24829;49.208;12.080;2023-07-20T05:11:16;6.13;;;3.75;;
39078;SDS011;24829;49.208;12.080;2023-07-20T05:13:42;7.50;;;4.05;;
39078;SDS011;24829;49.208;12.080;2023-07-20T05:16:07;11.68;;;3.58;;
39078;SDS011;24829;49.208;12.080;2023-07-20T05:18:33;8.50;;;3.90;;
39078;SDS011;24829;49.208;12.080;2023-07-20T05:20:58;9.10;;;3.92;;
39078;SDS011;24829;49.208;12.080;2023-07-20T05:23:24;8.55;;;3.88;;
39078;SDS011;24829;49.208;12.080;2023-07-20T05:25:53;13.07;;;4.25;;
39078;SDS011;24829;49.208;12.080;2023-07-20T05:28:23;12.38;;;4.55;;
39078;SDS011;24829;49.208;12.080;2023-07-20T05:30:50;12.45;;;4.90;;
39078;SDS011;24829;49.208;12.080;2023-07-20T05:33:22;9.82;;;4.10;;
39078;SDS011;24829;49.208;12.080;2023-07-20T05:35:48;11.63;;;4.45;;
39078;SDS011;24829;49.208;12.080;2023-07-20T05:38:13;12.77;;;4.15;;
39078;SDS011;24829;49.208;12.080;2023-07-20T05:40:43;7.68;;;3.67;;
39078;SDS011;24829;49.208;12.080;2023-07-20T05:43:10;7.38;;;4.10;;
39078;SDS011;24829;49.208;12.080;2023-07-20T05:45:36;8.98;;;4.05;;
39078;SDS011;24829;49.208;12.080;2023-07-20T05:48:02;5.00;;;3.63;;
39078;SDS011;24829;49.208;12.080;2023-07-20T05:50:28;6.68;;;3.95;;
39078;SDS011;24829;49.208;12.080;2023-07-20T05:52:53;8.25;;;3.25;;
39078;SDS011;24829;49.208;12.080;2023-07-20T05:55:19;8.20;;;4.00;;
39078;SDS011;24829;49.208;12.080;2023-07-20T05:57:45;6.20;;;3.95;;
39078;SDS011;24829;49.208;12.080;2023-07-20T06:00:13;12.65;;;4.63;;
39078;SDS011;24829;49.208;12.080;2023-07-20T06:02:39;7.32;;;3.38;;
39078;SDS011;24829;49.208;12.080;2023-07-20T06:05:05;7.60;;;3.60;;
39078;SDS011;24829;49.208;12.080;2023-07-20T06:07:34;6.43;;;3.92;;
39078;SDS011;24829;49.208;12.080;2023-07-20T06:10:03;5.32;;;3.75;;
39078;SDS011;24829;49.208;12.080;2023-07-20T06:12:30;7.97;;;3.40;;
39078;SDS011;24829;49.208;12.080;2023-07-20T06:14:56;8.65;;;3.13;;
39078;SDS011;24829;49.208;12.080;2023-07-20T06:17:21;5.10;;;3.22;;
39078;SDS011;24829;49.208;12.080;2023-07-20T06:19:47;9.15;;;2.88;;
39078;SDS011;24829;49.208;12.080;2023-07-20T06:22:12;4.63;;;3.15;;
39078;SDS011;24829;49.208;12.080;2023-07-20T06:24:38;7.32;;;2.40;;
39078;SDS011;24829;49.208;12.080;2023-07-20T06:27:04;8.32;;;2.65;;
39078;SDS011;24829;49.208;12.080;2023-07-20T06:29:30;5.05;;;2.38;;
39078;SDS011;24829;49.208;12.080;2023-07-20T06:31:56;7.15;;;2.90;;
39078;SDS011;24829;49.208;12.080;2023-07-20T06:34:21;8.07;;;3.40;;
39078;SDS011;24829;49.208;12.080;2023-07-20T06:36:47;6.10;;;2.38;;
39078;SDS011;24829;49.208;12.080;2023-07-20T06:39:13;8.23;;;2.90;;
39078;SDS011;24829;49.208;12.080;2023-07-20T06:41:39;5.35;;;2.55;;
39078;SDS011;24829;49.208;12.080;2023-07-20T06:44:04;7.25;;;2.55;;
39078;SDS011;24829;49.208;12.080;2023-07-20T06:46:30;4.63;;;2.58;;
39078;SDS011;24829;49.208;12.080;2023-07-20T06:48:56;4.28;;;2.30;;
39078;SDS011;24829;49.208;12.080;2023-07-20T06:51:22;5.53;;;2.58;;
39078;SDS011;24829;49.208;12.080;2023-07-20T06:53:47;6.57;;;2.33;;
39078;SDS011;24829;49.208;12.080;2023-07-20T06:56:13;5.40;;;2.22;;
39078;SDS011;24829;49.208;12.080;2023-07-20T06:58:39;6.88;;;2.42;;
39078;SDS011;24829;49.208;12.080;2023-07-20T07:01:05;5.90;;;2.50;;
39078;SDS011;24829;49.208;12.080;2023-07-20T07:03:33;5.10;;;2.00;;
39078;SDS011;24829;49.208;12.080;2023-07-20T07:05:59;8.38;;;2.78;;
39078;SDS011;24829;49.208;12.080;2023-07-20T07:08:25;13.30;;;2.67;;
39078;SDS011;24829;49.208;12.080;2023-07-20T07:10:50;4.20;;;1.98;;
39078;SDS011;24829;49.208;12.080;2023-07-20T07:13:17;6.88;;;2.45;;
39078;SDS011;24829;49.208;12.080;2023-07-20T07:15:42;5.15;;;2.15;;
39078;SDS011;24829;49.208;12.080;2023-07-20T07:18:08;5.63;;;2.47;;
39078;SDS011;24829;49.208;12.080;2023-07-20T07:20:33;6.70;;;2.45;;
39078;SDS011;24829;49.208;12.080;2023-07-20T07:22:59;4.85;;;1.88;;
39078;SDS011;24829;49.208;12.080;2023-07-20T07:25:25;4.18;;;2.08;;
39078;SDS011;24829;49.208;12.080;2023-07-20T07:27:52;3.58;;;1.80;;
39078;SDS011;24829;49.208;12.080;2023-07-20T07:30:19;4.70;;;2.22;;
39078;SDS011;24829;49.208;12.080;2023-07-20T07:32:44;6.90;;;1.80;;
39078;SDS011;24829;49.208;12.080;2023-07-20T07:35:10;3.42;;;1.80;;
39078;SDS011;24829;49.208;12.080;2023-07-20T07:37:36;3.97;;;1.90;;
39078;SDS011;24829;49.208;12.080;2023-07-20T07:40:02;5.65;;;2.00;;
39078;SDS011;24829;49.208;12.080;2023-07-20T07:42:28;8.05;;;2.10;;
39078;SDS011;24829;49.208;12.080;2023-07-20T07:44:54;7.20;;;2.60;;
39078;SDS011;24829;49.208;12.080;2023-07-20T07:47:20;4.70;;;2.00;;
39078;SDS011;24829;49.208;12.080;2023-07-20T07:49:45;7.40;;;2.03;;
39078;SDS011;24829;49.208;12.080;2023-07-20T07:52:11;6.13;;;1.80;;
39078;SDS011;24829;49.208;12.080;2023-07-20T07:54:36;3.40;;;1.55;;
39078;SDS011;24829;49.208;12.080;2023-07-20T07:57:02;6.95;;;1.70;;
39078;SDS011;24829;49.208;12.080;2023-07-20T07:59:27;6.57;;;1.75;;
39078;SDS011;24829;49.208;12.080;2023-07-20T08:01:53;7.85;;;2.17;;
39078;SDS011;24829;49.208;12.080;2023-07-20T08:04:19;5.03;;;1.90;;
39078;SDS011;24829;49.208;12.080;2023-07-20T08:06:44;8.88;;;2.10;;
39078;SDS011;24829;49.208;12.080;2023-07-20T08:09:10;5.53;;;1.50;;
39078;SDS011;24829;49.208;12.080;2023-07-20T08:11:36;3.53;;;1.60;;
39078;SDS011;24829;49.208;12.080;2023-07-20T08:14:03;5.53;;;1.30;;
39078;SDS011;24829;49.208;12.080;2023-07-20T08:16:29;5.15;;;1.40;;
39078;SDS011;24829;49.208;12.080;2023-07-20T08:18:54;4.80;;;1.58;;
39078;SDS011;24829;49.208;12.080;2023-07-20T08:21:20;4.72;;;1.70;;
39078;SDS011;24829;49.208;12.080;2023-07-20T08:23:45;5.43;;;1.58;;
39078;SDS011;24829;49.208;12.080;2023-07-20T08:26:11;5.32;;;1.70;;
39078;SDS011;24829;49.208;12.080;2023-07-20T08:28:37;4.60;;;1.40;;
39078;SDS011;24829;49.208;12.080;2023-07-20T08:31:03;8.93;;;2.00;;
39078;SDS011;24829;49.208;12.080;2023-07-20T08:33:31;3.58;;;1.40;;
39078;SDS011;24829;49.208;12.080;2023-07-20T08:35:58;3.92;;;1.50;;
39078;SDS011;24829;49.208;12.080;2023-07-20T08:38:26;4.22;;;1.35;;
39078;SDS011;24829;49.208;12.080;2023-07-20T08:40:51;5.25;;;1.70;;
39078;SDS011;24829;49.208;12.080;2023-07-20T08:43:19;6.03;;;1.38;;
39078;SDS011;24829;49.208;12.080;2023-07-20T08:45:45;2.67;;;1.27;;
39078;SDS011;24829;49.208;12.080;2023-07-20T08:48:13;3.05;;;1.42;;
39078;SDS011;24829;49.208;12.080;2023-07-20T08:50:40;3.70;;;1.20;;
39078;SDS011;24829;49.208;12.080;2023-07-20T08:53:07;3.60;;;1.40;;
39078;SDS011;24829;49.208;12.080;2023-07-20T08:55:35;4.03;;;1.02;;
39078;SDS011;24829;49.208;12.080;2023-07-20T08:58:01;4.68;;;1.48;;
39078;SDS011;24829;49.208;12.080;2023-07-20T09:00:27;8.48;;;1.20;;
39078;SDS011;24829;49.208;12.080;2023-07-20T09:02:54;5.43;;;1.20;;
39078;SDS011;24829;49.208;12.080;2023-07-20T09:05:22;2.00;;;1.10;;
39078;SDS011;24829;49.208;12.080;2023-07-20T09:07:51;1.98;;;1.15;;
39078;SDS011;24829;49.208;12.080;2023-07-20T09:10:18;3.28;;;1.00;;
39078;SDS011;24829;49.208;12.080;2023-07-20T09:12:48;2.97;;;1.10;;
39078;SDS011;24829;49.208;12.080;2023-07-20T09:15:14;2.83;;;1.10;;
39078;SDS011;24829;49.208;12.080;2023-07-20T09:17:41;4.38;;;1.15;;
39078;SDS011;24829;49.208;12.080;2023-07-20T09:20:19;2.63;;;1.35;;
39078;SDS011;24829;49.208;12.080;2023-07-20T09:22:45;1.92;;;1.10;;
39078;SDS011;24829;49.208;12.080;2023-07-20T09:27:41;3.65;;;1.30;;
39078;SDS011;24829;49.208;12.080;2023-07-20T09:30:08;3.50;;;1.05;;
39078;SDS011;24829;49.208;12.080;2023-07-20T09:32:38;5.80;;;1.52;;
39078;SDS011;24829;49.208;12.080;2023-07-20T09:35:12;7.17;;;1.90;;
39078;SDS011;24829;49.208;12.080;2023-07-20T09:37:38;2.55;;;1.10;;
39078;SDS011;24829;49.208;12.080;2023-07-20T09:40:05;3.97;;;1.20;;
39078;SDS011;24829;49.208;12.080;2023-07-20T09:42:33;3.03;;;1.17;;
39078;SDS011;24829;49.208;12.080;2023-07-20T09:45:01;7.60;;;1.30;;
39078;SDS011;24829;49.208;12.080;2023-07-20T09:47:27;2.95;;;0.98;;
39078;SDS011;24829;49.208;12.080;2023-07-20T09:49:58;6.00;;;1.00;;
39078;SDS011;24829;49.208;12.080;2023-07-20T09:52:25;3.90;;;1.10;;
39078;SDS011;24829;49.208;12.080;2023-07-20T09:54:51;4.03;;;1.33;;
39078;SDS011;24829;49.208;12.080;2023-07-20T09:57:17;4.95;;;1.15;;
39078;SDS011;24829;49.208;12.080;2023-07-20T09:59:43;3.58;;;1.10;;
39078;SDS011;24829;49.208;12.080;2023-07-20T10:02:11;4.65;;;1.10;;
39078;SDS011;24829;49.208;12.080;2023-07-20T10:04:46;1.98;;;0.93;;
39078;SDS011;24829;49.208;12.080;2023-07-20T10:07:14;3.15;;;0.90;;
39078;SDS011;24829;49.208;12.080;2023-07-20T10:09:41;2.42;;;1.00;;
39078;SDS011;24829;49.208;12.080;2023-07-20T10:12:09;4.65;;;1.10;;
39078;SDS011;24829;49.208;12.080;2023-07-20T10:14:36;3.05;;;0.88;;
39078;SDS011;24829;49.208;12.080;2023-07-20T10:17:06;5.03;;;1.20;;
39078;SDS011;24829;49.208;12.080;2023-07-20T10:22:14;3.20;;;1.13;;
39078;SDS011;24829;49.208;12.080;2023-07-20T10:24:44;3.83;;;1.10;;
39078;SDS011;24829;49.208;12.080;2023-07-20T10:27:11;5.63;;;0.88;;
39078;SDS011;24829;49.208;12.080;2023-07-20T10:29:37;2.72;;;0.93;;
39078;SDS011;24829;49.208;12.080;2023-07-20T10:32:04;4.13;;;1.15;;
39078;SDS011;24829;49.208;12.080;2023-07-20T10:34:30;3.28;;;0.95;;
39078;SDS011;24829;49.208;12.080;2023-07-20T10:36:56;2.55;;;1.10;;
39078;SDS011;24829;49.208;12.080;2023-07-20T10:39:25;3.85;;;1.13;;
39078;SDS011;24829;49.208;12.080;2023-07-20T10:42:09;3.17;;;1.00;;
39078;SDS011;24829;49.208;12.080;2023-07-20T10:44:38;3.00;;;1.00;;
39078;SDS011;24829;49.208;12.080;2023-07-20T10:47:09;3.78;;;1.10;;
39078;SDS011;24829;49.208;12.080;2023-07-20T10:49:39;2.45;;;0.95;;
39078;SDS011;24829;49.208;12.080;2023-07-20T10:52:36;3.13;;;1.00;;
39078;SDS011;24829;49.208;12.080;2023-07-20T10:55:15;4.35;;;1.10;;
39078;SDS011;24829;49.208;12.080;2023-07-20T10:57:41;3.58;;;0.90;;
39078;SDS011;24829;49.208;12.080;2023-07-20T11:00:13;2.70;;;1.20;;
39078;SDS011;24829;49.208;12.080;2023-07-20T11:02:48;1.60;;;0.90;;
39078;SDS011;24829;49.208;12.080;2023-07-20T11:08:04;5.53;;;1.10;;
39078;SDS011;24829;49.208;12.080;2023-07-20T11:10:31;2.80;;;1.13;;
39078;SDS011;24829;49.208;12.080;2023-07-20T11:15:52;2.20;;;1.00;;
39078;SDS011;24829;49.208;12.080;2023-07-20T11:18:28;4.68;;;1.20;;
39078;SDS011;24829;49.208;12.080;2023-07-20T11:20:54;3.47;;;1.00;;
39078;SDS011;24829;49.208;12.080;2023-07-20T11:23:20;3.00;;;1.05;;
39078;SDS011;24829;49.208;12.080;2023-07-20T11:25:46;2.67;;;1.08;;
39078;SDS011;24829;49.208;12.080;2023-07-20T11:28:12;1.80;;;1.00;;
39078;SDS011;24829;49.208;12.080;2023-07-20T11:30:38;2.53;;;0.73;;
39078;SDS011;24829;49.208;12.080;2023-07-20T11:33:04;2.83;;;1.00;;
39078;SDS011;24829;49.208;12.080;2023-07-20T11:35:31;2.20;;;0.98;;
39078;SDS011;24829;49.208;12.080;2023-07-20T11:38:00;4.57;;;1.35;;
39078;SDS011;24829;49.208;12.080;2023-07-20T11:40:25;1.98;;;1.00;;
39078;SDS011;24829;49.208;12.080;2023-07-20T11:42:51;2.05;;;0.90;;
39078;SDS011;24829;49.208;12.080;2023-07-20T11:45:19;3.45;;;0.98;;
39078;SDS011;24829;49.208;12.080;2023-07-20T11:47:44;2.72;;;1.13;;
39078;SDS011;24829;49.208;12.080;2023-07-20T11:50:10;2.50;;;1.17;;
39078;SDS011;24829;49.208;12.080;2023-07-20T11:52:38;3.28;;;0.85;;
39078;SDS011;24829;49.208;12.080;2023-07-20T11:55:05;4.50;;;1.10;;
39078;SDS011;24829;49.208;12.080;2023-07-20T11:57:32;3.15;;;1.13;;
39078;SDS011;24829;49.208;12.080;2023-07-20T11:59:58;2.25;;;0.90;;
39078;SDS011;24829;49.208;12.080;2023-07-20T12:02:30;2.47;;;0.80;;
39078;SDS011;24829;49.208;12.080;2023-07-20T12:04:56;1.10;;;0.80;;
39078;SDS011;24829;49.208;12.080;2023-07-20T12:07:22;4.45;;;1.10;;
39078;SDS011;24829;49.208;12.080;2023-07-20T12:12:31;2.25;;;0.90;;
39078;SDS011;24829;49.208;12.080;2023-07-20T12:15:11;1.17;;;0.80;;
39078;SDS011;24829;49.208;12.080;2023-07-20T12:17:41;2.13;;;0.88;;
39078;SDS011;24829;49.208;12.080;2023-07-20T12:20:08;2.10;;;1.00;;
39078;SDS011;24829;49.208;12.080;2023-07-20T12:22:38;2.15;;;0.90;;
39078;SDS011;24829;49.208;12.080;2023-07-20T12:25:06;3.77;;;1.00;;
39078;SDS011;24829;49.208;12.080;2023-07-20T12:27:33;2.83;;;1.00;;
39078;SDS011;24829;49.208;12.080;2023-07-20T12:30:01;2.67;;;1.10;;
39078;SDS011;24829;49.208;12.080;2023-07-20T12:32:28;2.67;;;0.90;;
39078;SDS011;24829;49.208;12.080;2023-07-20T12:34:53;4.25;;;1.13;;
39078;SDS011;24829;49.208;12.080;2023-07-20T12:37:19;3.13;;;0.90;;
39078;SDS011;24829;49.208;12.080;2023-07-20T12:39:44;1.38;;;0.93;;
39078;SDS011;24829;49.208;12.080;2023-07-20T12:42:12;3.30;;;1.30;;
39078;SDS011;24829;49.208;12.080;2023-07-20T12:44:39;3.60;;;1.00;;
39078;SDS011;24829;49.208;12.080;2023-07-20T12:47:05;2.35;;;0.90;;
39078;SDS011;24829;49.208;12.080;2023-07-20T12:49:30;3.90;;;1.10;;
39078;SDS011;24829;49.208;12.080;2023-07-20T12:51:56;3.55;;;0.98;;
39078;SDS011;24829;49.208;12.080;2023-07-20T12:54:21;1.67;;;0.90;;
39078;SDS011;24829;49.208;12.080;2023-07-20T12:56:47;1.98;;;0.93;;
39078;SDS011;24829;49.208;12.080;2023-07-20T12:59:12;1.95;;;0.80;;
39078;SDS011;24829;49.208;12.080;2023-07-20T13:01:38;1.67;;;1.15;;
39078;SDS011;24829;49.208;12.080;2023-07-20T13:04:06;3.13;;;1.00;;
39078;SDS011;24829;49.208;12.080;2023-07-20T13:06:34;1.20;;;0.73;;
39078;SDS011;24829;49.208;12.080;2023-07-20T13:09:00;1.15;;;0.70;;
39078;SDS011;24829;49.208;12.080;2023-07-20T13:11:25;1.35;;;0.68;;
39078;SDS011;24829;49.208;12.080;2023-07-20T13:13:51;2.60;;;1.00;;
39078;SDS011;24829;49.208;12.080;2023-07-20T13:16:17;1.60;;;0.90;;
39078;SDS011;24829;49.208;12.080;2023-07-20T13:18:42;1.25;;;0.80;;
39078;SDS011;24829;49.208;12.080;2023-07-20T13:21:08;2.45;;;0.90;;
39078;SDS011;24829;49.208;12.080;2023-07-20T13:23:36;1.33;;;0.88;;
39078;SDS011;24829;49.208;12.080;2023-07-20T13:26:02;1.98;;;0.80;;
39078;SDS011;24829;49.208;12.080;2023-07-20T13:28:29;2.42;;;0.90;;
39078;SDS011;24829;49.208;12.080;2023-07-20T13:30:55;2.25;;;1.00;;
39078;SDS011;24829;49.208;12.080;2023-07-20T13:33:20;3.33;;;0.80;;
39078;SDS011;24829;49.208;12.080;2023-07-20T13:35:46;3.83;;;0.90;;
39078;SDS011;24829;49.208;12.080;2023-07-20T13:38:12;1.98;;;0.80;;
39078;SDS011;24829;49.208;12.080;2023-07-20T13:40:38;2.63;;;1.15;;
39078;SDS011;24829;49.208;12.080;2023-07-20T13:43:03;1.13;;;0.60;;
39078;SDS011;24829;49.208;12.080;2023-07-20T13:45:29;4.25;;;1.00;;
39078;SDS011;24829;49.208;12.080;2023-07-20T13:47:54;1.02;;;0.70;;
39078;SDS011;24829;49.208;12.080;2023-07-20T13:50:20;3.38;;;0.95;;
39078;SDS011;24829;49.208;12.080;2023-07-20T13:52:46;1.88;;;0.90;;
39078;SDS011;24829;49.208;12.080;2023-07-20T13:55:12;2.75;;;1.00;;
39078;SDS011;24829;49.208;12.080;2023-07-20T13:57:37;1.45;;;0.75;;
39078;SDS011;24829;49.208;12.080;2023-07-20T14:00:03;2.42;;;0.75;;
39078;SDS011;24829;49.208;12.080;2023-07-20T14:02:29;1.55;;;0.75;;
39078;SDS011;24829;49.208;12.080;2023-07-20T14:04:55;2.97;;;0.80;;
39078;SDS011;24829;49.208;12.080;2023-07-20T14:07:21;2.78;;;0.82;;
39078;SDS011;24829;49.208;12.080;2023-07-20T14:09:47;0.98;;;0.60;;
39078;SDS011;24829;49.208;12.080;2023-07-20T14:12:13;2.00;;;0.90;;
39078;SDS011;24829;49.208;12.080;2023-07-20T14:14:39;0.93;;;0.80;;
39078;SDS011;24829;49.208;12.080;2023-07-20T14:17:06;1.10;;;0.70;;
39078;SDS011;24829;49.208;12.080;2023-07-20T14:19:32;3.05;;;0.70;;
39078;SDS011;24829;49.208;12.080;2023-07-20T14:21:57;1.58;;;0.73;;
39078;SDS011;24829;49.208;12.080;2023-07-20T14:24:24;3.13;;;0.70;;
39078;SDS011;24829;49.208;12.080;2023-07-20T14:26:50;4.47;;;0.70;;
39078;SDS011;24829;49.208;12.080;2023-07-20T14:29:16;1.17;;;0.68;;
39078;SDS011;24829;49.208;12.080;2023-07-20T14:31:43;1.60;;;0.70;;
39078;SDS011;24829;49.208;12.080;2023-07-20T14:34:09;1.52;;;0.93;;
39078;SDS011;24829;49.208;12.080;2023-07-20T14:36:34;1.85;;;0.80;;
39078;SDS011;24829;49.208;12.080;2023-07-20T14:39:00;2.58;;;0.70;;
39078;SDS011;24829;49.208;12.080;2023-07-20T14:41:26;2.55;;;1.00;;
39078;SDS011;24829;49.208;12.080;2023-07-20T14:43:51;3.05;;;0.98;;
39078;SDS011;24829;49.208;12.080;2023-07-20T14:46:17;2.30;;;0.68;;
39078;SDS011;24829;49.208;12.080;2023-07-20T14:48:42;2.08;;;0.65;;
39078;SDS011;24829;49.208;12.080;2023-07-20T14:51:08;1.35;;;0.70;;
39078;SDS011;24829;49.208;12.080;2023-07-20T14:53:33;4.93;;;0.80;;